Time;durP1;ratioP1;P1;durP2;ratioP2;P2;SDS_P1;SDS_P2;PMS_P1;PMS_P2;Temp;Humidity;BMP_temperature;BMP_pressure;BME280_temperature;BME280_humidity;BME280_pressure;Samples;Min_cycle;Max_cycle;Signal;HPM_P1;HPM_P2
2023/06/18 00:01:08;;;;;;;6.95;6.25;;;;;;;;;;5095531;28;20024;-66
2023/06/18 00:03:35;;;;;;;8.48;6.25;;;;;;;;;;5095623;28;20020;-66
2023/06/18 00:06:01;;;;;;;9.90;5.95;;;;;;;;;;5095698;28;20020;-67
2023/06/18 00:08:28;;;;;;;6.80;5.57;;;;;;;;;;5095476;28;20044;-66
2023/06/18 00:10:54;;;;;;;10.93;6.25;;;;;;;;;;5095477;28;20023;-66
2023/06/18 00:13:20;;;;;;;6.43;5.78;;;;;;;;;;5095216;28;20407;-66
2023/06/18 00:15:46;;;;;;;8.55;6.03;;;;;;;;;;5095842;28;20016;-66
2023/06/18 00:18:13;;;;;;;11.13;6.00;;;;;;;;;;5094754;28;20040;-65
2023/06/18 00:20:39;;;;;;;10.18;6.32;;;;;;;;;;5095064;28;20020;-65
2023/06/18 00:23:05;;;;;;;8.60;5.70;;;;;;;;;;5094985;28;20020;-66
2023/06/18 00:25:32;;;;;;;9.93;5.72;;;;;;;;;;5094858;28;20036;-66
2023/06/18 00:27:58;;;;;;;8.45;5.38;;;;;;;;;;5094935;28;20388;-66
2023/06/18 00:30:24;;;;;;;8.63;5.90;;;;;;;;;;5094966;28;20031;-66
2023/06/18 00:32:51;;;;;;;9.02;6.50;;;;;;;;;;5094327;28;20395;-66
2023/06/18 00:35:17;;;;;;;7.75;6.72;;;;;;;;;;5095144;28;20031;-66
2023/06/18 00:37:44;;;;;;;8.63;5.65;;;;;;;;;;5094815;28;20509;-66
2023/06/18 00:40:12;;;;;;;6.35;5.47;;;;;;;;;;5094687;28;20012;-66
2023/06/18 00:42:39;;;;;;;7.90;5.65;;;;;;;;;;5094788;28;20024;-66
2023/06/18 00:45:08;;;;;;;8.35;5.93;;;;;;;;;;5094981;28;20023;-66
2023/06/18 00:47:35;;;;;;;7.05;5.53;;;;;;;;;;5094562;28;20050;-66
2023/06/18 00:50:05;;;;;;;7.57;6.28;;;;;;;;;;5094779;28;20494;-66
2023/06/18 00:52:34;;;;;;;8.85;5.65;;;;;;;;;;5094296;28;20046;-66
2023/06/18 00:55:02;;;;;;;8.77;5.78;;;;;;;;;;5094530;28;20031;-66
2023/06/18 00:57:29;;;;;;;7.95;5.35;;;;;;;;;;5094375;28;20077;-65
2023/06/18 00:59:56;;;;;;;8.57;6.32;;;;;;;;;;5094282;28;20024;-66
2023/06/18 01:02:25;;;;;;;6.85;6.10;;;;;;;;;;5093826;28;20020;-66
2023/06/18 01:04:55;;;;;;;7.63;6.10;;;;;;;;;;5094172;28;20028;-65
2023/06/18 01:07:22;;;;;;;6.95;6.25;;;;;;;;;;5094174;28;20373;-66
2023/06/18 01:09:56;;;;;;;7.63;6.22;;;;;;;;;;5094301;28;20030;-66
2023/06/18 01:12:27;;;;;;;8.90;6.10;;;;;;;;;;5093872;28;20058;-66
2023/06/18 01:14:55;;;;;;;6.70;6.05;;;;;;;;;;5094197;28;20024;-66
2023/06/18 01:17:22;;;;;;;7.38;5.72;;;;;;;;;;5093574;28;20484;-66
2023/06/18 01:19:49;;;;;;;7.78;5.75;;;;;;;;;;5093998;28;20502;-66
2023/06/18 01:22:19;;;;;;;7.30;6.43;;;;;;;;;;5093926;28;20024;-66
2023/06/18 01:24:50;;;;;;;11.57;6.43;;;;;;;;;;5093925;28;20028;-66
2023/06/18 01:27:17;;;;;;;7.75;6.43;;;;;;;;;;5093683;28;20396;-66
2023/06/18 01:29:43;;;;;;;7.53;6.70;;;;;;;;;;5093604;28;20024;-66
2023/06/18 01:32:10;;;;;;;8.73;5.90;;;;;;;;;;5093048;28;20035;-66
2023/06/18 01:34:39;;;;;;;11.93;6.00;;;;;;;;;;5093820;28;20028;-66
2023/06/18 01:37:24;;;;;;;9.18;6.22;;;;;;;;;;5093156;28;20354;-65
2023/06/18 01:39:50;;;;;;;8.65;6.43;;;;;;;;;;5093812;28;20026;-66
2023/06/18 01:42:20;;;;;;;12.15;6.43;;;;;;;;;;5093485;28;20038;-65
2023/06/18 01:44:56;;;;;;;9.50;6.60;;;;;;;;;;5093616;28;20016;-66
2023/06/18 01:47:26;;;;;;;7.38;6.53;;;;;;;;;;5091648;28;20039;-66
2023/06/18 01:49:54;;;;;;;8.32;6.03;;;;;;;;;;5093373;28;20084;-66
2023/06/18 01:52:23;;;;;;;7.50;6.30;;;;;;;;;;5093115;28;20096;-66
2023/06/18 01:54:50;;;;;;;8.68;6.55;;;;;;;;;;5093325;28;20036;-65
2023/06/18 01:57:16;;;;;;;6.90;5.95;;;;;;;;;;5093352;28;20032;-65
2023/06/18 01:59:43;;;;;;;10.25;6.00;;;;;;;;;;5092936;28;20020;-65
2023/06/18 02:02:10;;;;;;;9.77;6.28;;;;;;;;;;5093202;28;20024;-65
2023/06/18 02:04:37;;;;;;;8.05;6.13;;;;;;;;;;5093010;28;20027;-66
2023/06/18 02:07:03;;;;;;;8.05;6.97;;;;;;;;;;5093222;28;20034;-66
2023/06/18 02:09:30;;;;;;;10.10;6.40;;;;;;;;;;5093184;28;20024;-66
2023/06/18 02:11:57;;;;;;;7.15;6.07;;;;;;;;;;5093074;28;20031;-65
2023/06/18 02:14:23;;;;;;;8.10;6.68;;;;;;;;;;5092753;28;20518;-66
2023/06/18 02:16:49;;;;;;;9.88;6.70;;;;;;;;;;5093326;28;20049;-65
2023/06/18 02:19:16;;;;;;;9.75;6.78;;;;;;;;;;5093362;28;20021;-66
2023/06/18 02:21:42;;;;;;;7.00;6.28;;;;;;;;;;5092855;28;20024;-66
2023/06/18 02:24:09;;;;;;;8.32;6.53;;;;;;;;;;5092492;28;20020;-65
2023/06/18 02:26:35;;;;;;;8.10;6.57;;;;;;;;;;5092628;28;20057;-66
2023/06/18 02:29:01;;;;;;;8.90;6.45;;;;;;;;;;5092673;28;20028;-65
2023/06/18 02:31:27;;;;;;;7.25;6.47;;;;;;;;;;5092620;28;20024;-65
2023/06/18 02:33:54;;;;;;;8.13;6.70;;;;;;;;;;5092355;28;20438;-66
2023/06/18 02:36:20;;;;;;;10.27;6.53;;;;;;;;;;5092503;28;20028;-66
2023/06/18 02:38:48;;;;;;;8.52;6.32;;;;;;;;;;5092483;28;20100;-66
2023/06/18 02:41:14;;;;;;;8.50;6.30;;;;;;;;;;5092607;28;20028;-67
2023/06/18 02:43:42;;;;;;;8.52;6.57;;;;;;;;;;5092146;28;20020;-66
2023/06/18 02:46:09;;;;;;;8.35;6.50;;;;;;;;;;5092750;28;20050;-66
2023/06/18 02:48:36;;;;;;;7.57;6.88;;;;;;;;;;5092237;28;20031;-66
2023/06/18 02:51:02;;;;;;;7.75;6.95;;;;;;;;;;5092730;28;20033;-66
2023/06/18 02:53:28;;;;;;;7.45;6.60;;;;;;;;;;5092363;28;20048;-66
2023/06/18 02:55:55;;;;;;;7.30;6.45;;;;;;;;;;5092647;28;20034;-65
2023/06/18 02:58:28;;;;;;;11.70;6.75;;;;;;;;;;5092293;28;20027;-66
2023/06/18 03:00:59;;;;;;;7.75;6.60;;;;;;;;;;5092856;28;20031;-65
2023/06/18 03:03:26;;;;;;;9.63;6.95;;;;;;;;;;5092440;28;20024;-66
2023/06/18 03:05:53;;;;;;;7.93;6.38;;;;;;;;;;5092144;28;20038;-65
2023/06/18 03:08:20;;;;;;;9.45;6.45;;;;;;;;;;5092238;28;20038;-66
2023/06/18 03:10:46;;;;;;;9.55;6.70;;;;;;;;;;5092491;28;20474;-65
2023/06/18 03:13:13;;;;;;;7.65;6.80;;;;;;;;;;5091556;28;20423;-65
2023/06/18 03:15:39;;;;;;;7.68;6.43;;;;;;;;;;5092452;28;20068;-66
2023/06/18 03:18:06;;;;;;;9.77;7.57;;;;;;;;;;5092433;28;20020;-66
2023/06/18 03:20:32;;;;;;;8.60;6.82;;;;;;;;;;5092322;28;20020;-66
2023/06/18 03:22:59;;;;;;;10.32;7.10;;;;;;;;;;5092389;28;20020;-66
2023/06/18 03:25:25;;;;;;;7.57;6.78;;;;;;;;;;5092429;28;20024;-66
2023/06/18 03:27:51;;;;;;;10.57;6.97;;;;;;;;;;5107552;28;20016;-66
2023/06/18 03:30:18;;;;;;;7.45;6.53;;;;;;;;;;5092083;28;20032;-65
2023/06/18 03:32:44;;;;;;;7.32;6.63;;;;;;;;;;5091856;28;20028;-66
2023/06/18 03:35:11;;;;;;;8.27;7.00;;;;;;;;;;5091973;28;20035;-66
2023/06/18 03:37:37;;;;;;;7.35;6.65;;;;;;;;;;5091814;28;20362;-65
2023/06/18 03:40:04;;;;;;;10.80;7.22;;;;;;;;;;5092572;28;20028;-66
2023/06/18 03:42:30;;;;;;;8.70;6.75;;;;;;;;;;5091633;28;20020;-66
2023/06/18 03:44:56;;;;;;;8.27;6.90;;;;;;;;;;5091849;28;20144;-66
2023/06/18 03:47:23;;;;;;;9.43;7.03;;;;;;;;;;5092120;28;20020;-66
2023/06/18 03:49:49;;;;;;;11.00;6.90;;;;;;;;;;5092594;28;20039;-66
2023/06/18 03:52:15;;;;;;;8.63;6.97;;;;;;;;;;5091604;28;20044;-65
2023/06/18 03:54:42;;;;;;;12.77;6.53;;;;;;;;;;5091938;28;20021;-66
2023/06/18 03:57:08;;;;;;;10.32;7.45;;;;;;;;;;5092022;28;20035;-66
2023/06/18 03:59:35;;;;;;;7.93;7.10;;;;;;;;;;5093014;28;20507;-66
2023/06/18 04:02:01;;;;;;;7.47;6.68;;;;;;;;;;5095290;28;20036;-66
2023/06/18 04:04:27;;;;;;;7.47;6.70;;;;;;;;;;5096034;28;20480;-66
2023/06/18 04:06:53;;;;;;;8.38;7.53;;;;;;;;;;5095537;28;20032;-65
2023/06/18 04:09:20;;;;;;;9.55;6.50;;;;;;;;;;5095290;28;20026;-66
2023/06/18 04:11:46;;;;;;;7.72;6.50;;;;;;;;;;5095040;28;20034;-66
2023/06/18 04:14:13;;;;;;;8.88;6.72;;;;;;;;;;5095376;28;20396;-66
2023/06/18 04:16:39;;;;;;;7.95;6.97;;;;;;;;;;5095215;28;20020;-66
2023/06/18 04:19:05;;;;;;;8.40;6.90;;;;;;;;;;5095289;28;20024;-65
2023/06/18 04:21:34;;;;;;;7.05;6.45;;;;;;;;;;5095034;28;20025;-65
2023/06/18 04:24:01;;;;;;;8.70;7.57;;;;;;;;;;5094853;28;20061;-66
2023/06/18 04:26:27;;;;;;;7.85;7.05;;;;;;;;;;5094844;28;20031;-66
2023/06/18 04:28:54;;;;;;;9.10;6.63;;;;;;;;;;5095347;28;20028;-66
2023/06/18 04:31:20;;;;;;;10.13;7.07;;;;;;;;;;5094930;28;20388;-66
2023/06/18 04:33:46;;;;;;;9.95;6.93;;;;;;;;;;5094770;28;20036;-65
2023/06/18 04:36:14;;;;;;;10.23;6.93;;;;;;;;;;5095317;28;20024;-66
2023/06/18 04:38:41;;;;;;;7.65;6.55;;;;;;;;;;5094889;28;20024;-66
2023/06/18 04:41:07;;;;;;;8.98;7.13;;;;;;;;;;5094620;28;20387;-66
2023/06/18 04:43:33;;;;;;;8.65;7.30;;;;;;;;;;5094645;28;20024;-66
2023/06/18 04:46:00;;;;;;;9.77;7.95;;;;;;;;;;5094665;28;20034;-66
2023/06/18 04:48:27;;;;;;;7.57;6.78;;;;;;;;;;5094895;28;20024;-65
2023/06/18 04:50:53;;;;;;;9.82;6.82;;;;;;;;;;5095326;28;20038;-65
2023/06/18 04:53:20;;;;;;;8.43;6.90;;;;;;;;;;5094234;28;20411;-65
2023/06/18 04:55:46;;;;;;;8.13;6.95;;;;;;;;;;5094455;28;20022;-65
2023/06/18 04:58:13;;;;;;;9.23;7.32;;;;;;;;;;5095015;28;20016;-66
2023/06/18 05:00:39;;;;;;;11.75;7.72;;;;;;;;;;5094592;28;20013;-66
2023/06/18 05:03:06;;;;;;;10.77;7.20;;;;;;;;;;5095075;28;20031;-66
2023/06/18 05:05:33;;;;;;;10.77;7.00;;;;;;;;;;5094371;28;20388;-65
2023/06/18 05:07:59;;;;;;;9.25;6.97;;;;;;;;;;5094782;28;20027;-66
2023/06/18 05:10:26;;;;;;;8.52;7.63;;;;;;;;;;5093992;28;20498;-66
2023/06/18 05:12:52;;;;;;;10.05;7.05;;;;;;;;;;5093956;28;20449;-66
2023/06/18 05:15:19;;;;;;;8.60;7.45;;;;;;;;;;5094300;28;20044;-65
2023/06/18 05:17:45;;;;;;;7.18;6.43;;;;;;;;;;5093904;28;20024;-66
2023/06/18 05:20:12;;;;;;;9.02;6.97;;;;;;;;;;5094000;28;20020;-66
2023/06/18 05:22:40;;;;;;;10.38;7.63;;;;;;;;;;5094246;28;20042;-66
2023/06/18 05:25:06;;;;;;;8.80;7.55;;;;;;;;;;5092879;28;20035;-66
2023/06/18 05:27:33;;;;;;;8.60;7.57;;;;;;;;;;5093944;28;20028;-66
2023/06/18 05:29:59;;;;;;;8.40;7.00;;;;;;;;;;5093732;28;20032;-65
2023/06/18 05:32:25;;;;;;;8.70;6.90;;;;;;;;;;5093834;28;20043;-66
2023/06/18 05:34:55;;;;;;;10.20;7.22;;;;;;;;;;5093762;28;20020;-66
2023/06/18 05:37:22;;;;;;;13.57;6.93;;;;;;;;;;5093091;28;20020;-65
2023/06/18 05:39:50;;;;;;;9.40;7.13;;;;;;;;;;5093627;28;20028;-66
2023/06/18 05:42:16;;;;;;;7.90;7.10;;;;;;;;;;5093576;28;20028;-66
2023/06/18 05:44:43;;;;;;;8.73;7.20;;;;;;;;;;5093439;28;20069;-66
2023/06/18 05:47:09;;;;;;;8.25;7.45;;;;;;;;;;5093596;28;20028;-66
2023/06/18 05:49:35;;;;;;;7.80;7.03;;;;;;;;;;5093425;28;20024;-65
2023/06/18 05:52:02;;;;;;;9.15;7.25;;;;;;;;;;5092790;28;20050;-66
2023/06/18 05:54:28;;;;;;;8.95;7.57;;;;;;;;;;5093476;28;20039;-65
2023/06/18 05:56:54;;;;;;;7.95;7.15;;;;;;;;;;5093367;28;20020;-66
2023/06/18 05:59:21;;;;;;;10.18;7.47;;;;;;;;;;5093446;28;20032;-66
2023/06/18 06:01:47;;;;;;;7.82;7.03;;;;;;;;;;5093373;28;20028;-66
2023/06/18 06:04:13;;;;;;;9.20;6.75;;;;;;;;;;5093263;28;20019;-66
2023/06/18 06:06:40;;;;;;;7.43;6.72;;;;;;;;;;5092565;28;20046;-66
2023/06/18 06:09:07;;;;;;;9.10;7.20;;;;;;;;;;5093147;28;20030;-66
2023/06/18 06:11:36;;;;;;;11.30;7.28;;;;;;;;;;5093753;28;20032;-66
2023/06/18 06:14:03;;;;;;;8.32;7.22;;;;;;;;;;5092920;28;20374;-66
2023/06/18 06:16:29;;;;;;;9.95;6.78;;;;;;;;;;5093186;28;20020;-66
2023/06/18 06:18:56;;;;;;;10.38;7.35;;;;;;;;;;5093058;28;20485;-66
2023/06/18 06:21:22;;;;;;;7.70;6.90;;;;;;;;;;5092493;28;20020;-66
2023/06/18 06:23:49;;;;;;;7.90;7.10;;;;;;;;;;5091851;28;20024;-66
2023/06/18 06:26:15;;;;;;;8.93;7.32;;;;;;;;;;5093554;28;20026;-65
2023/06/18 06:28:41;;;;;;;8.00;7.18;;;;;;;;;;5092558;28;20027;-65
2023/06/18 06:31:07;;;;;;;7.88;7.18;;;;;;;;;;5092722;28;20016;-66
2023/06/18 06:33:34;;;;;;;7.50;6.78;;;;;;;;;;5092610;28;20046;-66
2023/06/18 06:36:01;;;;;;;8.77;7.43;;;;;;;;;;5092400;28;20473;-66
2023/06/18 06:38:27;;;;;;;8.73;7.43;;;;;;;;;;5092761;28;20028;-66
2023/06/18 06:40:53;;;;;;;8.43;7.35;;;;;;;;;;5092573;28;20366;-66
2023/06/18 06:43:20;;;;;;;9.25;7.40;;;;;;;;;;5092394;28;20491;-65
2023/06/18 06:45:46;;;;;;;9.50;7.28;;;;;;;;;;5092361;28;20400;-66
2023/06/18 06:48:12;;;;;;;7.88;6.90;;;;;;;;;;5092132;28;20443;-66
2023/06/18 06:50:39;;;;;;;8.70;6.07;;;;;;;;;;5091384;28;20020;-66
2023/06/18 06:53:05;;;;;;;5.88;4.80;;;;;;;;;;5092022;28;20051;-66
2023/06/18 06:55:32;;;;;;;7.55;4.85;;;;;;;;;;5092358;28;20073;-66
2023/06/18 06:57:59;;;;;;;5.47;4.38;;;;;;;;;;5092455;28;20034;-66
2023/06/18 07:00:25;;;;;;;4.45;3.95;;;;;;;;;;5092302;28;20016;-66
2023/06/18 07:02:51;;;;;;;7.80;4.47;;;;;;;;;;5092472;28;20019;-65
2023/06/18 07:05:18;;;;;;;7.63;4.53;;;;;;;;;;5092254;28;20031;-66
2023/06/18 07:07:45;;;;;;;6.15;4.20;;;;;;;;;;5092313;28;20027;-66
2023/06/18 07:10:11;;;;;;;4.28;3.75;;;;;;;;;;5092757;28;20028;-66
2023/06/18 07:12:37;;;;;;;5.72;3.80;;;;;;;;;;5092380;28;20040;-65
2023/06/18 07:15:04;;;;;;;4.20;3.70;;;;;;;;;;5092827;28;20020;-65
2023/06/18 07:17:31;;;;;;;4.20;3.80;;;;;;;;;;5092622;28;20016;-66
2023/06/18 07:19:57;;;;;;;4.03;3.50;;;;;;;;;;5107336;28;20484;-66
2023/06/18 07:22:23;;;;;;;4.72;3.53;;;;;;;;;;5092052;28;20020;-66
2023/06/18 07:24:50;;;;;;;4.85;3.35;;;;;;;;;;5092195;28;20024;-66
2023/06/18 07:27:16;;;;;;;7.40;3.50;;;;;;;;;;5092198;28;20030;-66
2023/06/18 07:29:43;;;;;;;4.10;3.03;;;;;;;;;;5091957;28;20036;-66
2023/06/18 07:32:09;;;;;;;6.97;3.47;;;;;;;;;;5092185;28;20032;-66
2023/06/18 07:34:35;;;;;;;4.22;3.15;;;;;;;;;;5092994;28;20198;-66
2023/06/18 07:37:02;;;;;;;5.25;2.95;;;;;;;;;;5096225;28;20384;-66
2023/06/18 07:39:28;;;;;;;3.80;3.13;;;;;;;;;;5095974;28;20028;-66
2023/06/18 07:41:54;;;;;;;4.10;3.35;;;;;;;;;;5095890;28;20474;-66
2023/06/18 07:44:21;;;;;;;4.38;3.20;;;;;;;;;;5096008;28;20020;-66
2023/06/18 07:46:47;;;;;;;6.15;3.45;;;;;;;;;;5095904;28;20062;-66
2023/06/18 07:49:16;;;;;;;7.15;3.38;;;;;;;;;;5095412;28;20472;-66
2023/06/18 07:51:43;;;;;;;3.42;3.10;;;;;;;;;;5095916;28;20156;-67
2023/06/18 07:54:09;;;;;;;3.90;3.20;;;;;;;;;;5111211;28;20055;-66
2023/06/18 07:56:35;;;;;;;6.75;3.50;;;;;;;;;;5095383;28;20024;-66
2023/06/18 07:59:02;;;;;;;4.05;3.45;;;;;;;;;;5095828;28;20032;-65
2023/06/18 08:01:28;;;;;;;6.57;3.45;;;;;;;;;;5095735;28;20058;-67
2023/06/18 08:03:54;;;;;;;5.47;3.67;;;;;;;;;;5095334;28;20024;-67
2023/06/18 08:06:21;;;;;;;3.70;3.35;;;;;;;;;;5095737;28;20012;-67
2023/06/18 08:08:48;;;;;;;4.55;3.60;;;;;;;;;;5095481;28;20032;-65
2023/06/18 08:11:15;;;;;;;7.75;3.85;;;;;;;;;;5095193;28;20028;-65
2023/06/18 08:13:41;;;;;;;5.35;2.85;;;;;;;;;;5095106;28;20040;-65
2023/06/18 08:16:08;;;;;;;6.10;4.07;;;;;;;;;;5095343;28;20472;-65
2023/06/18 08:18:34;;;;;;;5.78;3.35;;;;;;;;;;5095063;28;20032;-65
2023/06/18 08:21:01;;;;;;;4.35;3.50;;;;;;;;;;5095664;28;20030;-65
2023/06/18 08:23:27;;;;;;;6.35;3.80;;;;;;;;;;5095619;28;20020;-65
2023/06/18 08:25:54;;;;;;;5.25;3.60;;;;;;;;;;5094987;28;20477;-65
2023/06/18 08:28:21;;;;;;;8.48;3.90;;;;;;;;;;5095659;28;20210;-65
2023/06/18 08:30:47;;;;;;;4.68;4.10;;;;;;;;;;5094846;28;20481;-66
2023/06/18 08:33:13;;;;;;;5.53;3.92;;;;;;;;;;5094525;28;20046;-66
2023/06/18 08:35:40;;;;;;;6.65;4.35;;;;;;;;;;5094994;28;20383;-66
2023/06/18 08:38:06;;;;;;;7.50;4.38;;;;;;;;;;5094769;28;20012;-67
2023/06/18 08:40:39;;;;;;;7.78;4.32;;;;;;;;;;5095106;28;20084;-66
2023/06/18 08:43:09;;;;;;;6.78;4.75;;;;;;;;;;5094792;28;20395;-67
2023/06/18 08:45:35;;;;;;;;;;;;;;;;;;5094448;28;20016;-67
2023/06/18 08:48:06;;;;;;;9.25;4.10;;;;;;;;;;5093437;28;20334;-66
2023/06/18 08:50:33;;;;;;;6.65;4.30;;;;;;;;;;5094861;28;20488;-66
2023/06/18 08:53:02;;;;;;;11.40;4.40;;;;;;;;;;5094426;28;20126;-67
2023/06/18 08:55:29;;;;;;;6.13;4.47;;;;;;;;;;5094245;28;20380;-66
2023/06/18 08:58:00;;;;;;;6.78;4.30;;;;;;;;;;5094455;28;20030;-64
2023/06/18 09:00:27;;;;;;;5.00;4.10;;;;;;;;;;5093919;28;20021;-65
2023/06/18 09:02:54;;;;;;;6.97;4.53;;;;;;;;;;5094143;28;20441;-65
2023/06/18 09:05:21;;;;;;;6.05;4.28;;;;;;;;;;5094010;28;20396;-65
2023/06/18 09:07:48;;;;;;;6.63;4.32;;;;;;;;;;5094129;28;20024;-65
2023/06/18 09:10:15;;;;;;;5.78;4.10;;;;;;;;;;5094248;28;20024;-65
2023/06/18 09:12:41;;;;;;;5.05;4.28;;;;;;;;;;5094408;28;20039;-65
2023/06/18 09:15:07;;;;;;;4.40;4.00;;;;;;;;;;5093657;28;20031;-65
2023/06/18 09:17:36;;;;;;;5.32;4.80;;;;;;;;;;5094051;28;20488;-65
2023/06/18 09:20:03;;;;;;;6.93;4.27;;;;;;;;;;5094002;28;20370;-65
2023/06/18 09:22:29;;;;;;;4.53;4.10;;;;;;;;;;5093829;28;20063;-65
2023/06/18 09:24:57;;;;;;;4.63;4.10;;;;;;;;;;5093750;28;20024;-65
2023/06/18 09:27:31;;;;;;;5.70;4.40;;;;;;;;;;5094028;28;20017;-65
2023/06/18 09:29:57;;;;;;;7.80;4.72;;;;;;;;;;5093217;28;20023;-65
2023/06/18 09:32:23;;;;;;;5.50;4.85;;;;;;;;;;5093642;28;20030;-65
2023/06/18 09:34:50;;;;;;;7.07;5.03;;;;;;;;;;5093488;28;20028;-65
2023/06/18 09:37:16;;;;;;;6.22;4.68;;;;;;;;;;5093483;28;20024;-67
2023/06/18 09:39:44;;;;;;;6.20;4.75;;;;;;;;;;5093910;28;20041;-67
2023/06/18 09:42:11;;;;;;;6.90;4.88;;;;;;;;;;5093463;28;20042;-65
2023/06/18 09:44:38;;;;;;;5.45;4.57;;;;;;;;;;5093632;28;20039;-65
2023/06/18 09:47:11;;;;;;;8.95;4.18;;;;;;;;;;5093889;28;20035;-65
2023/06/18 09:49:38;;;;;;;5.05;4.57;;;;;;;;;;5093412;28;20012;-65
2023/06/18 09:52:07;;;;;;;6.50;4.63;;;;;;;;;;5093431;28;20054;-65
2023/06/18 09:54:44;;;;;;;8.20;4.72;;;;;;;;;;5093055;28;20040;-65
2023/06/18 09:57:13;;;;;;;6.35;4.68;;;;;;;;;;5092468;28;20020;-65
2023/06/18 09:59:40;;;;;;;7.22;5.13;;;;;;;;;;5093238;28;20544;-65
2023/06/18 10:02:07;;;;;;;6.75;5.25;;;;;;;;;;5093052;28;20024;-65
2023/06/18 10:04:33;;;;;;;5.47;4.63;;;;;;;;;;5093486;28;20028;-65
2023/06/18 10:07:05;;;;;;;5.18;4.68;;;;;;;;;;5092995;28;20026;-65
2023/06/18 10:09:34;;;;;;;6.18;4.95;;;;;;;;;;5092918;28;20376;-65
2023/06/18 10:12:02;;;;;;;6.78;4.75;;;;;;;;;;5093081;28;20024;-65
2023/06/18 10:14:29;;;;;;;5.63;5.03;;;;;;;;;;5091181;28;20454;-65
2023/06/18 10:16:58;;;;;;;6.78;4.55;;;;;;;;;;5093032;28;20032;-65
2023/06/18 10:19:26;;;;;;;6.05;4.72;;;;;;;;;;5108567;28;20492;-65
2023/06/18 10:22:00;;;;;;;6.28;4.72;;;;;;;;;;5092582;28;20035;-65
2023/06/18 10:24:32;;;;;;;7.85;4.80;;;;;;;;;;5092722;28;20020;-65
2023/06/18 10:26:59;;;;;;;6.05;4.85;;;;;;;;;;5092554;28;20024;-65
2023/06/18 10:29:25;;;;;;;5.95;5.32;;;;;;;;;;5092410;28;20032;-65
2023/06/18 10:31:53;;;;;;;7.57;4.80;;;;;;;;;;5092472;28;20028;-65
2023/06/18 10:34:19;;;;;;;8.13;4.63;;;;;;;;;;5092405;28;20036;-65
2023/06/18 10:36:46;;;;;;;5.50;5.00;;;;;;;;;;5092481;28;20024;-66
2023/06/18 10:39:13;;;;;;;6.13;5.15;;;;;;;;;;5092403;28;20024;-65
2023/06/18 10:41:44;;;;;;;7.70;4.72;;;;;;;;;;5092021;28;20024;-65
2023/06/18 10:44:10;;;;;;;7.10;4.82;;;;;;;;;;5092374;28;20038;-65
2023/06/18 10:46:36;;;;;;;7.38;4.63;;;;;;;;;;5092319;28;20028;-65
2023/06/18 10:49:16;;;;;;;11.48;4.68;;;;;;;;;;5092625;28;20023;-65
2023/06/18 10:51:43;;;;;;;;;;;;;;;;;;5092833;28;20042;-65
2023/06/18 10:54:30;;;;;;;8.48;4.90;;;;;;;;;;5092085;28;19916;-65
2023/06/18 10:56:58;;;;;;;5.97;5.13;;;;;;;;;;5091954;28;20049;-65
2023/06/18 10:59:43;;;;;;;6.53;4.50;;;;;;;;;;5092384;28;20074;-65
2023/06/18 11:02:14;;;;;;;8.07;5.30;;;;;;;;;;5092097;28;20036;-65
2023/06/18 11:04:41;;;;;;;8.52;5.13;;;;;;;;;;5092199;28;20024;-65
2023/06/18 11:07:27;;;;;;;7.70;4.70;;;;;;;;;;5092097;28;20372;-65
2023/06/18 11:10:01;;;;;;;7.43;5.10;;;;;;;;;;5095513;28;20065;-65
2023/06/18 11:12:28;;;;;;;5.60;5.05;;;;;;;;;;5096134;28;20026;-65
2023/06/18 11:15:14;;;;;;;8.85;5.50;;;;;;;;;;5096425;28;20503;-65
2023/06/18 11:17:41;;;;;;;5.43;4.60;;;;;;;;;;5096263;28;20023;-65
2023/06/18 11:20:08;;;;;;;6.78;5.10;;;;;;;;;;5096374;28;20024;-65
2023/06/18 11:22:35;;;;;;;6.85;5.00;;;;;;;;;;5096029;28;20061;-65
2023/06/18 11:25:02;;;;;;;7.05;4.95;;;;;;;;;;5096406;28;20016;-64
2023/06/18 11:27:30;;;;;;;6.32;4.55;;;;;;;;;;5095595;28;20515;-65
2023/06/18 11:29:57;;;;;;;6.65;4.95;;;;;;;;;;5096269;28;20016;-65
2023/06/18 11:32:24;;;;;;;5.20;4.43;;;;;;;;;;5095885;28;20506;-65
2023/06/18 11:34:51;;;;;;;5.10;4.60;;;;;;;;;;5095930;28;20034;-65
2023/06/18 11:37:17;;;;;;;5.63;4.30;;;;;;;;;;5095743;28;20023;-65
2023/06/18 11:39:43;;;;;;;8.60;5.00;;;;;;;;;;5095938;28;20020;-65
2023/06/18 11:42:20;;;;;;;6.57;4.68;;;;;;;;;;5095690;28;20031;-65
2023/06/18 11:44:46;;;;;;;6.80;4.47;;;;;;;;;;5095592;28;20403;-65
2023/06/18 11:47:13;;;;;;;5.63;4.95;;;;;;;;;;5095645;28;20373;-65
2023/06/18 11:49:45;;;;;;;8.93;5.13;;;;;;;;;;5095940;28;20020;-65
2023/06/18 11:52:15;;;;;;;9.07;4.65;;;;;;;;;;5095304;28;20035;-65
2023/06/18 11:54:42;;;;;;;7.57;5.30;;;;;;;;;;5095036;28;20485;-65
2023/06/18 11:57:15;;;;;;;5.97;5.00;;;;;;;;;;5095785;28;20042;-65
2023/06/18 11:59:42;;;;;;;6.63;5.10;;;;;;;;;;5095518;28;20031;-65
2023/06/18 12:02:10;;;;;;;6.22;4.43;;;;;;;;;;5095301;28;20020;-65
2023/06/18 12:04:37;;;;;;;5.85;4.82;;;;;;;;;;5095305;28;20495;-65
2023/06/18 12:07:03;;;;;;;5.32;4.80;;;;;;;;;;5095308;28;20030;-65
2023/06/18 12:09:33;;;;;;;7.28;4.97;;;;;;;;;;5094946;28;20024;-65
2023/06/18 12:12:02;;;;;;;6.47;4.53;;;;;;;;;;5095093;28;20514;-65
2023/06/18 12:14:49;;;;;;;7.05;4.35;;;;;;;;;;5095018;28;20044;-66
2023/06/18 12:17:21;;;;;;;9.27;4.88;;;;;;;;;;5072750;28;20071;-65
2023/06/18 12:19:49;;;;;;;7.65;4.45;;;;;;;;;;5071987;28;20436;-65
2023/06/18 12:22:16;;;;;;;5.40;4.47;;;;;;;;;;5072335;28;20459;-65
2023/06/18 12:24:43;;;;;;;5.32;4.38;;;;;;;;;;5072054;28;20025;-65
2023/06/18 12:27:09;;;;;;;6.30;4.80;;;;;;;;;;5072571;28;20393;-65
2023/06/18 12:29:39;;;;;;;5.72;4.32;;;;;;;;;;5072305;28;20418;-65
2023/06/18 12:32:08;;;;;;;5.18;4.40;;;;;;;;;;5072385;28;20416;-65
2023/06/18 12:34:35;;;;;;;5.65;4.35;;;;;;;;;;5055496;28;20048;-65
2023/06/18 12:37:01;;;;;;;5.20;4.07;;;;;;;;;;5072381;28;20558;-65
2023/06/18 12:39:28;;;;;;;9.65;4.43;;;;;;;;;;5072000;28;20035;-67
2023/06/18 12:41:57;;;;;;;5.18;4.47;;;;;;;;;;5072272;28;20044;-67
2023/06/18 12:44:24;;;;;;;7.88;4.68;;;;;;;;;;5072582;28;20024;-67
2023/06/18 12:46:52;;;;;;;4.80;4.10;;;;;;;;;;5072020;28;20036;-67
2023/06/18 12:49:19;;;;;;;5.22;3.85;;;;;;;;;;5071933;28;20489;-67
2023/06/18 12:51:46;;;;;;;6.22;4.18;;;;;;;;;;5072106;28;20044;-67
2023/06/18 12:54:17;;;;;;;5.90;4.10;;;;;;;;;;5081521;28;20056;-67
2023/06/18 12:56:50;;;;;;;4.60;3.90;;;;;;;;;;5094461;28;20024;-67
2023/06/18 12:59:20;;;;;;;5.82;4.05;;;;;;;;;;5094519;28;20031;-67
2023/06/18 13:01:47;;;;;;;8.65;4.15;;;;;;;;;;5094488;28;20020;-67
2023/06/18 13:04:16;;;;;;;6.20;4.15;;;;;;;;;;5094193;28;20028;-67
2023/06/18 13:06:42;;;;;;;7.40;4.28;;;;;;;;;;5093761;28;20026;-67
2023/06/18 13:09:08;;;;;;;4.60;3.72;;;;;;;;;;5094102;28;20054;-67
2023/06/18 13:11:38;;;;;;;5.20;3.72;;;;;;;;;;5094049;28;20410;-66
2023/06/18 13:14:04;;;;;;;9.67;4.13;;;;;;;;;;5093761;28;20411;-66
2023/06/18 13:16:31;;;;;;;7.15;3.92;;;;;;;;;;5093860;28;20020;-67
2023/06/18 13:18:57;;;;;;;4.60;3.78;;;;;;;;;;5093884;28;20030;-67
2023/06/18 13:21:23;;;;;;;5.38;3.88;;;;;;;;;;5093414;28;20020;-67
2023/06/18 13:23:50;;;;;;;6.05;3.85;;;;;;;;;;5093899;28;20028;-66
2023/06/18 13:26:18;;;;;;;6.55;3.60;;;;;;;;;;5093724;28;20016;-67
2023/06/18 13:28:44;;;;;;;6.22;4.10;;;;;;;;;;5093852;28;20027;-67
2023/06/18 13:31:11;;;;;;;4.70;3.42;;;;;;;;;;5093178;28;20035;-66
2023/06/18 13:33:37;;;;;;;6.60;4.07;;;;;;;;;;5092957;28;20042;-66
2023/06/18 13:36:04;;;;;;;6.78;4.15;;;;;;;;;;5093450;28;20027;-66
2023/06/18 13:38:30;;;;;;;5.93;4.00;;;;;;;;;;5093459;28;20020;-66
2023/06/18 13:40:57;;;;;;;6.18;3.95;;;;;;;;;;5093707;28;20020;-66
2023/06/18 13:43:23;;;;;;;4.93;3.78;;;;;;;;;;5093352;28;20034;-66
2023/06/18 13:45:50;;;;;;;4.15;3.75;;;;;;;;;;5093457;28;20020;-67
2023/06/18 13:48:17;;;;;;;5.85;4.05;;;;;;;;;;5093219;28;20028;-67
2023/06/18 13:50:43;;;;;;;7.05;3.38;;;;;;;;;;5092918;28;20469;-66
2023/06/18 13:53:10;;;;;;;5.18;3.50;;;;;;;;;;5092974;28;20063;-66
2023/06/18 13:55:36;;;;;;;5.40;3.60;;;;;;;;;;5093223;28;20032;-67
2023/06/18 13:58:02;;;;;;;4.05;3.53;;;;;;;;;;5093160;28;20034;-67
2023/06/18 14:00:29;;;;;;;5.45;3.90;;;;;;;;;;5093379;28;20026;-66
2023/06/18 14:02:55;;;;;;;5.45;3.50;;;;;;;;;;5093123;28;20016;-66
2023/06/18 14:05:21;;;;;;;5.72;3.30;;;;;;;;;;5092894;28;20073;-66
2023/06/18 14:07:48;;;;;;;4.28;3.22;;;;;;;;;;5093105;28;20038;-67
2023/06/18 14:10:14;;;;;;;10.55;3.60;;;;;;;;;;5092964;28;20031;-67
2023/06/18 14:12:40;;;;;;;5.70;3.45;;;;;;;;;;5092562;28;20373;-66
2023/06/18 14:15:07;;;;;;;6.57;3.53;;;;;;;;;;5092801;28;20036;-66
2023/06/18 14:17:35;;;;;;;4.40;3.70;;;;;;;;;;5092712;28;20401;-66
2023/06/18 14:20:01;;;;;;;9.18;3.78;;;;;;;;;;5092417;28;20020;-66
2023/06/18 14:22:28;;;;;;;6.45;3.65;;;;;;;;;;5108601;28;20024;-66
2023/06/18 14:24:55;;;;;;;5.60;3.78;;;;;;;;;;5092815;28;20487;-66
2023/06/18 14:27:22;;;;;;;6.68;3.60;;;;;;;;;;5092690;28;20028;-66
2023/06/18 14:29:49;;;;;;;5.53;3.83;;;;;;;;;;5092761;28;20031;-67
2023/06/18 14:32:16;;;;;;;5.60;3.70;;;;;;;;;;5091377;28;20034;-66
2023/06/18 14:34:42;;;;;;;4.90;3.83;;;;;;;;;;5092467;28;20028;-66
2023/06/18 14:37:08;;;;;;;7.72;3.70;;;;;;;;;;5092778;28;20024;-66
2023/06/18 14:39:34;;;;;;;4.63;3.10;;;;;;;;;;5092581;28;20392;-66
2023/06/18 14:42:01;;;;;;;5.00;3.72;;;;;;;;;;5092358;28;20473;-66
2023/06/18 14:44:29;;;;;;;4.82;3.85;;;;;;;;;;5092322;28;20026;-66